Time;durP1;ratioP1;P1;durP2;ratioP2;P2;SDS_P1;SDS_P2;PMS_P1;PMS_P2;Temp;Humidity;BMP_temperature;BMP_pressure;BME280_temperature;BME280_humidity;BME280_pressure;Samples;Min_cycle;Max_cycle;Signal;HPM_P1;HPM_P2
2021/05/15 00:00:11;;;;;;;2.40;1.40;;;11.10;99.90;;;;;;5045495;28;20345;-82
2021/05/15 00:02:37;;;;;;;2.90;1.35;;;11.10;99.90;;;;;;5030436;28;20025;-83
2021/05/15 00:05:08;;;;;;;1.90;1.20;;;12.70;99.90;;;;;;5029627;28;20021;-83
2021/05/15 00:07:34;;;;;;;2.28;1.40;;;11.00;99.90;;;;;;5034856;28;20012;-81
2021/05/15 00:09:59;;;;;;;3.47;1.60;;;12.40;99.90;;;;;;5029522;28;20064;-85
2021/05/15 00:12:25;;;;;;;2.72;1.52;;;13.10;99.90;;;;;;5056548;28;20037;-81
2021/05/15 00:14:51;;;;;;;2.22;1.40;;;;;;;;;;5029877;28;20131;-82
2021/05/15 00:17:17;;;;;;;3.13;1.42;;;10.90;99.90;;;;;;5048535;28;20033;-84
2021/05/15 00:19:43;;;;;;;3.05;1.73;;;10.80;99.90;;;;;;5046473;28;20033;-83
2021/05/15 00:22:08;;;;;;;4.93;1.52;;;13.10;99.90;;;;;;5040573;28;20106;-81
2021/05/15 00:24:34;;;;;;;2.65;1.40;;;10.80;99.90;;;;;;5023820;28;20025;-80
2021/05/15 00:27:00;;;;;;;2.25;1.30;;;10.80;99.90;;;;;;5033197;28;20028;-79
2021/05/15 00:29:25;;;;;;;4.50;1.88;;;10.80;99.90;;;;;;5049139;28;20025;-78
2021/05/15 00:31:51;;;;;;;4.68;1.88;;;10.80;99.90;;;;;;5047642;28;20120;-81
2021/05/15 00:34:17;;;;;;;4.20;1.60;;;;;;;;;;5045908;28;20029;-80
2021/05/15 00:36:43;;;;;;;2.72;1.40;;;10.70;99.90;;;;;;5056009;28;20107;-82
2021/05/15 00:39:09;;;;;;;2.50;1.60;;;;;;;;;;5050179;28;20567;-79
2021/05/15 00:41:37;;;;;;;3.08;1.60;;;10.70;99.90;;;;;;5051859;28;20031;-80
2021/05/15 00:44:15;;;;;;;2.40;1.55;;;11.20;99.90;;;;;;5048086;28;20467;-80
2021/05/15 00:46:45;;;;;;;2.60;1.50;;;10.70;99.90;;;;;;5052096;28;20029;-82
2021/05/15 00:49:12;;;;;;;3.58;1.60;;;10.80;99.90;;;;;;5027420;28;20039;-81
2021/05/15 00:51:38;;;;;;;2.35;1.60;;;8.90;99.90;;;;;;5031508;28;20056;-80
2021/05/15 00:54:05;;;;;;;3.80;1.98;;;10.70;99.90;;;;;;5051775;28;20460;-82
2021/05/15 00:56:32;;;;;;;2.38;1.63;;;10.70;99.90;;;;;;5036372;28;20064;-83
2021/05/15 00:58:59;;;;;;;4.13;1.80;;;10.70;99.90;;;;;;5027996;28;20033;-81
2021/05/15 01:01:25;;;;;;;3.20;1.67;;;10.70;99.90;;;;;;5044404;28;20052;-80
2021/05/15 01:03:51;;;;;;;3.47;2.00;;;10.60;99.90;;;;;;5031210;28;20036;-78
2021/05/15 01:06:17;;;;;;;3.10;1.83;;;;;;;;;;5031294;28;20021;-82
2021/05/15 01:08:46;;;;;;;4.40;1.88;;;10.40;99.90;;;;;;5042588;28;20029;-81
2021/05/15 01:11:21;;;;;;;3.03;1.92;;;10.50;99.90;;;;;;5031259;28;20036;-84
2021/05/15 01:13:51;;;;;;;4.30;2.00;;;10.50;99.90;;;;;;5053658;28;20020;-81
2021/05/15 01:16:16;;;;;;;2.33;1.70;;;10.50;99.90;;;;;;5048425;28;20017;-82
2021/05/15 01:18:42;;;;;;;2.65;1.58;;;;;;;;;;5033460;28;20407;-83
2021/05/15 01:21:09;;;;;;;3.08;1.77;;;10.60;99.90;;;;;;5043410;28;20022;-80
2021/05/15 01:23:34;;;;;;;3.05;2.00;;;10.60;99.90;;;;;;5060484;28;20044;-84
2021/05/15 01:26:11;;;;;;;2.65;1.70;;;10.60;99.90;;;;;;5048576;28;20040;-81
2021/05/15 01:28:37;;;;;;;3.70;1.85;;;10.60;99.90;;;;;;5053154;28;20044;-79
2021/05/15 01:31:02;;;;;;;3.15;1.48;;;10.60;99.90;;;;;;5048111;28;20029;-80
2021/05/15 01:33:28;;;;;;;2.88;1.67;;;10.60;99.90;;;;;;5045446;28;20029;-80
2021/05/15 01:35:54;;;;;;;3.45;1.95;;;10.60;99.90;;;;;;5046772;28;20506;-79
2021/05/15 01:38:19;;;;;;;5.10;2.20;;;10.50;99.90;;;;;;5029362;28;20075;-81
2021/05/15 01:40:45;;;;;;;4.00;2.17;;;;;;;;;;5053740;28;20024;-83
2021/05/15 01:43:16;;;;;;;3.63;2.53;;;10.50;99.90;;;;;;5048776;28;20503;-78
2021/05/15 01:45:42;;;;;;;4.32;2.35;;;10.40;99.90;;;;;;5036547;28;20059;-79
2021/05/15 01:48:17;;;;;;;5.22;2.50;;;10.30;99.90;;;;;;5030607;28;20499;-79
2021/05/15 01:50:53;;;;;;;3.15;2.33;;;10.40;99.90;;;;;;5033220;28;20032;-80
2021/05/15 01:53:19;;;;;;;4.28;2.47;;;10.40;99.90;;;;;;5033682;28;20035;-82
2021/05/15 01:55:44;;;;;;;3.33;2.30;;;10.40;99.90;;;;;;5036312;28;20032;-82
2021/05/15 01:58:10;;;;;;;3.13;2.22;;;;;;;;;;5032898;28;20060;-79
2021/05/15 02:00:36;;;;;;;4.55;2.33;;;10.50;99.90;;;;;;5045156;28;20495;-83
2021/05/15 02:03:01;;;;;;;6.82;2.55;;;10.70;99.90;;;;;;5034558;28;20445;-80
2021/05/15 02:05:27;;;;;;;4.05;2.47;;;;;;;;;;5032632;28;20032;-81
2021/05/15 02:07:53;;;;;;;5.63;2.80;;;10.50;99.90;;;;;;5051072;28;20387;-84
2021/05/15 02:10:18;;;;;;;4.28;2.42;;;10.50;99.90;;;;;;5048382;28;20120;-83
2021/05/15 02:12:44;;;;;;;4.95;2.80;;;10.40;99.90;;;;;;5039981;28;20025;-79
2021/05/15 02:15:10;;;;;;;3.38;2.45;;;10.40;99.90;;;;;;5045679;28;20036;-81
2021/05/15 02:17:36;;;;;;;3.55;2.53;;;10.50;99.90;;;;;;5033403;28;20036;-83
2021/05/15 02:20:04;;;;;;;5.65;3.20;;;10.50;99.90;;;;;;5044954;28;20033;-81
2021/05/15 02:22:30;;;;;;;4.72;3.10;;;10.60;99.90;;;;;;5047723;28;20088;-83
2021/05/15 02:24:55;;;;;;;6.03;2.65;;;10.60;99.90;;;;;;5033013;28;20471;-82
2021/05/15 02:27:21;;;;;;;4.45;2.90;;;11.70;99.90;;;;;;5034433;28;20028;-79
2021/05/15 02:29:46;;;;;;;4.50;2.70;;;11.10;99.90;;;;;;5032837;28;20013;-84
2021/05/15 02:32:12;;;;;;;4.55;2.33;;;10.60;99.90;;;;;;5049917;28;20036;-81
2021/05/15 02:34:38;;;;;;;4.25;2.75;;;10.70;99.90;;;;;;5030749;28;20519;-81
2021/05/15 02:37:03;;;;;;;4.50;2.25;;;10.70;99.90;;;;;;5032138;28;20029;-84
2021/05/15 02:39:29;;;;;;;4.03;2.50;;;;;;;;;;5029156;28;20082;-83
2021/05/15 02:41:55;;;;;;;4.90;2.92;;;10.70;99.90;;;;;;5029271;28;20035;-82
2021/05/15 02:44:21;;;;;;;3.63;2.55;;;10.70;99.90;;;;;;5030795;28;20045;-81
2021/05/15 02:46:47;;;;;;;4.20;2.78;;;;;;;;;;5041790;28;20037;-82
2021/05/15 02:49:12;;;;;;;4.57;2.60;;;10.70;99.90;;;;;;5044443;28;20116;-81
2021/05/15 02:51:38;;;;;;;5.00;2.90;;;10.70;99.90;;;;;;5025076;28;20112;-78
2021/05/15 02:54:04;;;;;;;4.70;2.90;;;10.60;99.90;;;;;;5033131;28;20021;-81
2021/05/15 02:56:29;;;;;;;4.95;3.00;;;10.60;99.90;;;;;;5048260;28;20059;-81
2021/05/15 02:58:55;;;;;;;4.63;2.92;;;;;;;;;;5037195;28;20110;-84
2021/05/15 03:01:21;;;;;;;4.43;2.90;;;10.60;99.90;;;;;;5040111;28;20083;-83
2021/05/15 03:03:46;;;;;;;4.78;2.78;;;10.70;99.90;;;;;;5050986;28;20021;-77
2021/05/15 03:06:13;;;;;;;5.30;2.90;;;;;;;;;;5030356;28;20032;-82
2021/05/15 03:08:38;;;;;;;6.40;3.20;;;10.70;99.90;;;;;;5045286;28;20048;-84
2021/05/15 03:11:04;;;;;;;5.82;3.00;;;10.60;99.90;;;;;;5030385;28;20060;-81
2021/05/15 03:13:29;;;;;;;5.97;3.72;;;10.50;99.90;;;;;;5027926;28;20040;-79
2021/05/15 03:15:55;;;;;;;5.43;3.03;;;10.50;99.90;;;;;;5029565;28;20107;-82
2021/05/15 03:18:20;;;;;;;4.80;3.28;;;10.50;99.90;;;;;;5030710;28;20031;-83
2021/05/15 03:20:46;;;;;;;4.55;3.38;;;10.50;99.90;;;;;;5039666;28;20116;-81
2021/05/15 03:23:13;;;;;;;4.32;2.95;;;12.30;99.90;;;;;;5027648;28;20527;-84
2021/05/15 03:25:38;;;;;;;7.95;3.80;;;10.50;99.90;;;;;;5034754;28;20483;-81
2021/05/15 03:28:04;;;;;;;6.60;4.07;;;10.40;99.90;;;;;;5039000;28;20374;-80
2021/05/15 03:30:29;;;;;;;6.53;3.65;;;10.40;99.90;;;;;;5053940;28;20491;-81
2021/05/15 03:32:55;;;;;;;5.93;4.00;;;10.30;99.90;;;;;;5050570;28;20032;-80
2021/05/15 03:35:21;;;;;;;5.00;3.67;;;10.30;99.90;;;;;;5052026;28;20519;-81
2021/05/15 03:37:46;;;;;;;11.45;6.03;;;10.40;99.90;;;;;;5039501;28;20029;-80
2021/05/15 03:40:12;;;;;;;7.28;3.97;;;10.40;99.90;;;;;;5052137;28;20037;-78
2021/05/15 03:42:38;;;;;;;5.82;3.83;;;10.40;99.90;;;;;;5031710;28;20046;-81
2021/05/15 03:45:07;;;;;;;5.75;4.05;;;10.40;99.90;;;;;;5028394;28;20047;-80
2021/05/15 03:47:33;;;;;;;6.20;4.00;;;10.40;99.90;;;;;;5048286;28;20040;-82
2021/05/15 03:49:59;;;;;;;5.20;3.58;;;10.50;99.90;;;;;;5053476;28;20479;-79
2021/05/15 03:52:24;;;;;;;6.88;3.97;;;10.40;99.90;;;;;;5028919;28;20024;-82
2021/05/15 03:54:50;;;;;;;6.95;4.00;;;10.50;99.90;;;;;;5047930;28;20032;-82
2021/05/15 03:57:15;;;;;;;8.10;4.05;;;10.50;99.90;;;;;;5042277;28;20083;-84
2021/05/15 03:59:41;;;;;;;5.32;3.47;;;10.50;99.90;;;;;;5048087;28;20235;-83
2021/05/15 04:02:07;;;;;;;5.07;3.58;;;10.50;99.90;;;;;;5034033;28;20117;-81
2021/05/15 04:04:34;;;;;;;8.00;4.43;;;10.60;99.90;;;;;;5028589;28;20020;-85
2021/05/15 04:06:59;;;;;;;6.25;3.85;;;13.30;99.90;;;;;;5053044;28;20021;-83
2021/05/15 04:09:25;;;;;;;5.95;3.80;;;;;;;;;;5045130;28;20040;-78
2021/05/15 04:11:51;;;;;;;6.88;4.05;;;10.50;99.90;;;;;;5049697;28;20499;-82
2021/05/15 04:19:30;;;;;;;7.05;3.80;;;10.50;99.90;;;;;;5049766;28;20039;-83
2021/05/15 04:21:57;;;;;;;6.22;3.72;;;10.60;99.90;;;;;;5026997;28;20036;-84
2021/05/15 04:24:26;;;;;;;5.47;4.13;;;10.60;99.90;;;;;;5031127;28;20029;-79
2021/05/15 04:26:57;;;;;;;8.32;4.78;;;10.60;99.90;;;;;;5054519;28;20036;-81
2021/05/15 04:29:24;;;;;;;9.90;4.32;;;10.60;99.90;;;;;;5057169;28;20085;-83
2021/05/15 04:31:53;;;;;;;6.18;4.38;;;13.50;99.90;;;;;;5046777;28;20033;-80
2021/05/15 04:34:20;;;;;;;5.63;4.18;;;10.70;99.90;;;;;;5024265;28;20061;-79
2021/05/15 04:36:45;;;;;;;6.90;4.07;;;13.20;99.90;;;;;;5029114;28;20079;-81
2021/05/15 04:39:11;;;;;;;7.80;4.65;;;;;;;;;;5048905;28;20519;-82
2021/05/15 04:41:37;;;;;;;7.00;4.90;;;;;;;;;;5028398;28;20024;-84
2021/05/15 04:44:04;;;;;;;7.28;4.40;;;10.70;99.90;;;;;;5045913;28;20154;-81
2021/05/15 04:46:29;;;;;;;7.15;4.60;;;10.60;99.90;;;;;;5034924;28;20459;-82
2021/05/15 04:48:55;;;;;;;8.38;4.90;;;10.60;99.90;;;;;;5028744;28;20116;-81
2021/05/15 04:51:21;;;;;;;6.22;4.25;;;10.60;99.90;;;;;;5030474;28;20033;-82
2021/05/15 04:53:46;;;;;;;6.20;4.50;;;10.60;99.90;;;;;;5048799;28;20060;-82
2021/05/15 04:56:14;;;;;;;6.30;4.20;;;10.70;99.90;;;;;;5047303;28;20037;-81
2021/05/15 04:58:40;;;;;;;6.50;4.70;;;12.90;99.90;;;;;;5045396;28;20442;-84
2021/05/15 05:01:05;;;;;;;8.23;5.28;;;10.60;99.90;;;;;;5029888;28;20025;-81
2021/05/15 05:03:31;;;;;;;8.55;5.22;;;10.70;99.90;;;;;;5029422;28;20390;-81
2021/05/15 05:05:57;;;;;;;7.82;5.40;;;10.70;99.90;;;;;;5049410;28;20033;-83
2021/05/15 05:08:25;;;;;;;7.10;5.40;;;10.60;99.90;;;;;;5054446;28;20025;-83
2021/05/15 05:10:54;;;;;;;9.00;5.63;;;10.60;99.90;;;;;;5032154;28;20498;-80
2021/05/15 05:13:20;;;;;;;7.80;5.63;;;10.60;99.90;;;;;;5037650;28;20025;-81
2021/05/15 05:15:47;;;;;;;8.45;5.68;;;10.60;99.90;;;;;;5031482;28;20388;-80
2021/05/15 05:18:13;;;;;;;7.53;5.57;;;10.70;99.90;;;;;;5033645;28;20108;-78
2021/05/15 05:20:39;;;;;;;8.68;5.55;;;10.60;99.90;;;;;;5035253;28;20521;-82
2021/05/15 05:23:05;;;;;;;9.88;5.78;;;10.60;99.90;;;;;;5051785;28;20064;-80
2021/05/15 05:25:31;;;;;;;9.68;6.07;;;10.70;99.90;;;;;;5021140;28;20025;-82
2021/05/15 05:27:57;;;;;;;6.50;5.40;;;;;;;;;;5028680;28;20047;-77
2021/05/15 05:30:23;;;;;;;7.97;6.07;;;10.80;99.90;;;;;;5042181;28;20032;-81
2021/05/15 05:32:52;;;;;;;8.00;6.10;;;11.90;99.90;;;;;;5035776;28;20029;-82
2021/05/15 05:35:18;;;;;;;8.90;6.35;;;10.80;99.90;;;;;;5045777;28;20036;-82
2021/05/15 05:37:45;;;;;;;9.75;6.53;;;10.80;99.90;;;;;;5031955;28;20079;-80
2021/05/15 05:40:12;;;;;;;8.50;6.45;;;10.80;99.90;;;;;;5030187;28;20029;-79
2021/05/15 05:42:38;;;;;;;9.68;6.47;;;10.70;99.90;;;;;;5028159;28;20021;-80
2021/05/15 05:45:06;;;;;;;9.05;6.55;;;10.80;99.90;;;;;;5012189;28;20044;-79
2021/05/15 05:47:32;;;;;;;7.68;5.88;;;10.80;99.90;;;;;;5048932;28;20023;-80
2021/05/15 05:49:58;;;;;;;8.05;6.35;;;13.40;99.90;;;;;;5060168;28;20032;-80
2021/05/15 05:52:23;;;;;;;7.07;5.78;;;10.70;99.90;;;;;;5032522;28;20072;-81
2021/05/15 05:54:49;;;;;;;6.82;5.40;;;10.90;99.90;;;;;;5026497;28;20960;-83
2021/05/15 05:57:15;;;;;;;7.97;5.82;;;11.00;99.90;;;;;;5026797;28;20506;-82
2021/05/15 05:59:40;;;;;;;7.68;5.70;;;11.70;99.90;;;;;;5043824;28;20032;-80
2021/05/15 06:02:06;;;;;;;7.15;5.68;;;11.00;99.90;;;;;;5042733;28;20033;-82
2021/05/15 06:04:32;;;;;;;7.07;4.68;;;11.60;99.90;;;;;;5036476;28;21359;-80
2021/05/15 06:06:58;;;;;;;6.15;4.75;;;12.80;99.90;;;;;;5030731;28;20025;-83
2021/05/15 06:09:24;;;;;;;7.03;5.45;;;10.80;99.90;;;;;;5042297;28;20025;-81
2021/05/15 06:11:49;;;;;;;7.80;5.40;;;12.10;99.90;;;;;;5024347;28;20056;-77
2021/05/15 06:14:15;;;;;;;6.60;5.15;;;10.80;99.90;;;;;;5026951;28;20021;-80
2021/05/15 06:16:40;;;;;;;8.73;4.80;;;10.80;99.90;;;;;;5047038;28;20487;-81
2021/05/15 06:19:06;;;;;;;6.47;4.22;;;10.80;99.90;;;;;;5046641;28;20484;-82
2021/05/15 06:21:31;;;;;;;5.80;3.83;;;10.80;99.90;;;;;;5029220;28;20369;-83
2021/05/15 06:23:57;;;;;;;6.40;3.90;;;;;;;;;;5050205;28;20063;-82
2021/05/15 06:26:23;;;;;;;6.40;3.92;;;10.90;99.90;;;;;;5056498;28;20028;-81
2021/05/15 06:28:49;;;;;;;5.65;3.83;;;;;;;;;;5045694;28;20499;-82
2021/05/15 06:31:15;;;;;;;5.82;3.75;;;10.90;99.90;;;;;;5031906;28;20273;-83
2021/05/15 06:33:40;;;;;;;6.18;3.58;;;10.80;99.90;;;;;;5034260;28;20031;-82
2021/05/15 06:36:08;;;;;;;5.78;3.75;;;13.20;99.90;;;;;;5038838;28;20029;-83
2021/05/15 06:38:33;;;;;;;8.50;3.47;;;10.80;99.90;;;;;;5043366;28;20021;-79
2021/05/15 06:41:01;;;;;;;5.78;3.70;;;10.70;99.90;;;;;;5034226;28;20443;-83
2021/05/15 06:43:27;;;;;;;5.97;3.90;;;10.80;99.90;;;;;;5054292;28;20037;-82
2021/05/15 06:45:53;;;;;;;6.38;3.60;;;;;;;;;;5027812;28;20064;-80
2021/05/15 06:48:18;;;;;;;9.10;4.00;;;10.80;99.90;;;;;;5056713;28;20033;-82
2021/05/15 06:50:44;;;;;;;4.75;3.75;;;10.80;99.90;;;;;;5049810;28;20025;-81
2021/05/15 06:53:10;;;;;;;4.78;3.67;;;;;;;;;;5048588;28;20037;-79
2021/05/15 06:55:35;;;;;;;5.40;3.72;;;10.80;99.90;;;;;;5031795;28;20043;-84
2021/05/15 06:58:05;;;;;;;5.03;3.63;;;10.80;99.90;;;;;;5051652;28;20056;-83
2021/05/15 07:00:31;;;;;;;3.70;2.88;;;12.60;99.90;;;;;;5051182;28;20111;-85
2021/05/15 07:02:56;;;;;;;4.93;2.50;;;12.90;99.90;;;;;;5054479;28;20169;-80
2021/05/15 07:05:22;;;;;;;3.72;2.55;;;13.10;99.90;;;;;;5059350;28;20029;-83
2021/05/15 07:07:47;;;;;;;3.38;2.47;;;10.80;99.90;;;;;;5043104;28;20032;-83
2021/05/15 07:10:13;;;;;;;3.72;2.40;;;10.80;99.90;;;;;;5026866;28;20032;-83
2021/05/15 07:12:39;;;;;;;2.92;2.08;;;10.80;99.90;;;;;;5026215;28;20025;-81
2021/05/15 07:15:08;;;;;;;3.75;2.17;;;10.80;99.90;;;;;;5037936;28;20026;-79
2021/05/15 07:17:35;;;;;;;2.55;1.70;;;10.80;99.90;;;;;;5049222;28;20527;-83
2021/05/15 07:20:01;;;;;;;2.50;1.70;;;10.90;99.90;;;;;;5038791;28;20472;-82
2021/05/15 07:22:27;;;;;;;2.63;1.67;;;10.90;99.90;;;;;;5034272;28;20120;-83
2021/05/15 07:24:56;;;;;;;3.15;1.90;;;10.90;99.90;;;;;;5046460;28;20035;-80
2021/05/15 07:27:23;;;;;;;2.33;1.77;;;10.90;99.90;;;;;;5037641;28;20023;-82
2021/05/15 07:29:51;;;;;;;2.60;1.95;;;10.90;99.90;;;;;;5051547;28;20025;-83
2021/05/15 07:32:17;;;;;;;4.15;2.33;;;10.90;99.90;;;;;;5047788;28;20025;-81
2021/05/15 07:34:43;;;;;;;3.85;2.50;;;10.90;99.90;;;;;;5042444;28;20522;-85
2021/05/15 07:37:09;;;;;;;3.60;2.47;;;10.90;99.90;;;;;;5032673;28;20029;-82
2021/05/15 07:39:36;;;;;;;3.75;2.30;;;10.80;99.90;;;;;;5044464;28;20477;-82
2021/05/15 07:42:03;;;;;;;4.38;2.67;;;13.30;99.90;;;;;;5034973;28;20033;-81
2021/05/15 07:44:28;;;;;;;3.60;2.50;;;11.10;99.90;;;;;;5033487;28;20034;-82
2021/05/15 07:46:54;;;;;;;3.88;2.40;;;11.10;99.90;;;;;;5029234;28;20072;-84
2021/05/15 07:49:19;;;;;;;4.25;2.53;;;11.10;99.90;;;;;;5032727;28;20163;-85
2021/05/15 07:51:45;;;;;;;3.80;2.60;;;11.10;99.90;;;;;;5026514;28;20033;-83
2021/05/15 07:54:11;;;;;;;4.38;3.00;;;;;;;;;;5055468;28;20399;-82
2021/05/15 07:56:37;;;;;;;5.45;2.90;;;11.20;99.90;;;;;;5050882;28;20029;-85
2021/05/15 07:59:03;;;;;;;7.03;4.15;;;11.20;99.90;;;;;;5034857;28;20092;-86
2021/05/15 08:01:29;;;;;;;5.90;3.50;;;;;;;;;;5031967;28;20071;-84
2021/05/15 08:03:55;;;;;;;4.80;3.25;;;11.10;99.90;;;;;;5033116;28;20033;-84
2021/05/15 08:06:20;;;;;;;5.40;3.15;;;11.10;99.90;;;;;;5046300;28;20039;-83
2021/05/15 08:08:46;;;;;;;4.93;3.47;;;;;;;;;;5048986;28;20146;-85
2021/05/15 08:11:12;;;;;;;3.97;2.90;;;11.20;99.90;;;;;;5041183;28;20025;-83
2021/05/15 08:13:39;;;;;;;4.28;3.00;;;11.50;99.90;;;;;;5033810;28;20466;-82
2021/05/15 08:16:05;;;;;;;8.70;3.55;;;11.40;99.90;;;;;;5048381;28;21093;-84
2021/05/15 08:18:30;;;;;;;4.68;3.20;;;11.70;99.90;;;;;;5036619;28;20037;-83
2021/05/15 08:20:57;;;;;;;6.07;3.28;;;;;;;;;;5054553;28;20553;-85
2021/05/15 08:23:22;;;;;;;5.20;3.08;;;11.90;99.90;;;;;;5031120;28;20074;-85
2021/05/15 08:25:48;;;;;;;5.70;3.75;;;12.80;99.90;;;;;;5036699;28;20115;-83
2021/05/15 08:28:16;;;;;;;3.78;3.25;;;12.10;99.90;;;;;;5029041;28;20017;-85
2021/05/15 08:30:43;;;;;;;4.85;3.13;;;12.30;99.90;;;;;;5024803;28;20032;-83
2021/05/15 08:33:09;;;;;;;6.10;3.13;;;12.40;99.90;;;;;;5045297;28;20029;-83
2021/05/15 08:35:35;;;;;;;4.57;3.00;;;12.30;99.90;;;;;;5026415;28;20056;-84
2021/05/15 08:38:02;;;;;;;6.28;3.33;;;12.40;99.90;;;;;;5029393;28;20036;-85
2021/05/15 08:40:28;;;;;;;7.35;3.58;;;12.50;99.90;;;;;;5053337;28;20039;-86
2021/05/15 08:42:55;;;;;;;4.72;3.17;;;12.50;99.90;;;;;;5055960;28;20026;-85
2021/05/15 08:45:23;;;;;;;6.85;3.95;;;12.60;99.90;;;;;;5033541;28;20059;-83
2021/05/15 08:47:50;;;;;;;6.60;3.50;;;12.90;99.90;;;;;;5031001;28;20033;-84
2021/05/15 08:50:18;;;;;;;4.40;2.85;;;12.80;99.90;;;;;;5016283;28;20025;-84
2021/05/15 08:52:50;;;;;;;3.33;2.63;;;16.00;99.90;;;;;;5029970;28;20037;-84
2021/05/15 08:55:19;;;;;;;4.70;3.17;;;13.30;99.90;;;;;;5046513;28;20029;-89
2021/05/15 08:57:45;;;;;;;10.68;5.95;;;;;;;;;;5068081;28;20032;-86
2021/05/15 09:00:23;;;;;;;5.10;3.10;;;13.40;99.90;;;;;;5057968;28;20061;-84
2021/05/15 09:02:53;;;;;;;5.95;2.65;;;13.30;99.90;;;;;;5043081;28;20096;-83
2021/05/15 09:05:20;;;;;;;4.43;2.93;;;13.30;99.90;;;;;;5050114;28;20033;-82
2021/05/15 09:07:52;;;;;;;6.00;2.65;;;13.40;99.90;;;;;;5039618;28;20025;-86
2021/05/15 09:10:20;;;;;;;5.25;2.97;;;13.50;99.90;;;;;;5052190;28;20029;-85
2021/05/15 09:12:47;;;;;;;5.15;3.10;;;;;;;;;;5050680;28;20491;-83
2021/05/15 09:15:14;;;;;;;3.60;2.15;;;;;;;;;;5039324;28;20400;-87
2021/05/15 09:17:48;;;;;;;4.85;2.78;;;13.70;99.90;;;;;;5037805;28;20057;-86
2021/05/15 09:20:33;;;;;;;4.82;2.30;;;13.80;99.90;;;;;;5048073;28;20037;-86
2021/05/15 09:23:10;;;;;;;5.78;2.20;;;13.70;99.90;;;;;;5021402;28;20029;-83
2021/05/15 09:25:36;;;;;;;7.90;2.47;;;13.90;99.90;;;;;;5047088;28;20040;-84
2021/05/15 09:28:01;;;;;;;4.97;2.00;;;13.90;99.90;;;;;;5047800;28;20046;-84
2021/05/15 09:30:30;;;;;;;3.08;1.77;;;16.40;99.90;;;;;;5050745;28;20028;-84
2021/05/15 09:32:56;;;;;;;3.83;1.90;;;14.00;99.90;;;;;;5049943;28;20041;-87
2021/05/15 09:35:26;;;;;;;4.07;1.67;;;13.90;99.90;;;;;;5030693;28;20150;-87
2021/05/15 09:37:51;;;;;;;3.60;2.10;;;13.90;99.90;;;;;;5053086;28;20111;-85
2021/05/15 09:40:22;;;;;;;5.72;2.10;;;15.40;99.90;;;;;;5048893;28;20106;-86
2021/05/15 09:43:08;;;;;;;5.35;1.73;;;14.40;99.90;;;;;;5032493;28;20120;-83
2021/05/15 09:45:36;;;;;;;5.88;1.80;;;14.00;99.90;;;;;;5043805;28;20031;-81
2021/05/15 09:48:05;;;;;;;4.80;1.60;;;14.00;99.90;;;;;;5032635;28;20048;-86
2021/05/15 09:50:36;;;;;;;7.10;1.80;;;13.80;99.90;;;;;;5051319;28;20426;-80
2021/05/15 09:53:06;;;;;;;4.38;1.60;;;14.80;99.90;;;;;;5023262;28;20484;-81
2021/05/15 09:55:32;;;;;;;3.72;1.70;;;13.70;99.90;;;;;;5035844;28;20056;-85
2021/05/15 09:57:57;;;;;;;5.10;1.55;;;13.70;99.90;;;;;;5028107;28;20499;-83
2021/05/15 10:00:23;;;;;;;1.80;1.10;;;13.60;99.90;;;;;;5059539;28;20064;-85
2021/05/15 10:02:56;;;;;;;3.60;1.30;;;13.60;99.90;;;;;;5039807;28;20651;-84
2021/05/15 10:05:25;;;;;;;4.35;1.42;;;13.50;99.90;;;;;;5055303;28;20029;-85
2021/05/15 10:07:51;;;;;;;4.70;1.77;;;;;;;;;;5052681;28;20025;-82
2021/05/15 10:10:17;;;;;;;4.45;1.40;;;13.50;99.90;;;;;;5052768;28;20053;-84
2021/05/15 10:12:43;;;;;;;3.40;1.38;;;14.30;99.90;;;;;;5035071;28;20032;-80
2021/05/15 10:15:09;;;;;;;2.30;1.23;;;13.40;99.90;;;;;;5051178;28;20032;-84
2021/05/15 10:17:35;;;;;;;4.35;1.20;;;;;;;;;;5033801;28;20033;-79
2021/05/15 10:20:06;;;;;;;2.97;1.15;;;13.30;99.90;;;;;;5041433;28;20554;-83
2021/05/15 10:22:37;;;;;;;2.20;1.15;;;13.20;99.90;;;;;;5042498;28;20047;-82
2021/05/15 10:25:03;;;;;;;2.97;1.30;;;13.20;99.90;;;;;;5049870;28;20021;-84
2021/05/15 10:27:34;;;;;;;3.20;1.50;;;13.10;99.90;;;;;;5030831;28;20043;-84
2021/05/15 10:30:20;;;;;;;2.95;1.52;;;13.20;99.90;;;;;;5053302;28;20029;-83
2021/05/15 10:33:01;;;;;;;4.55;1.70;;;13.20;99.90;;;;;;5027909;28;20391;-82
2021/05/15 10:35:27;;;;;;;3.28;1.20;;;13.30;99.90;;;;;;5055060;28;20063;-81
2021/05/15 10:38:14;;;;;;;2.83;1.30;;;13.20;99.90;;;;;;5032729;28;20033;-80
2021/05/15 10:40:48;;;;;;;3.92;1.30;;;13.10;99.90;;;;;;5031680;28;20033;-82
2021/05/15 10:43:14;;;;;;;2.78;1.10;;;13.00;99.90;;;;;;5029530;28;20035;-83
2021/05/15 10:45:42;;;;;;;4.57;1.55;;;13.20;99.90;;;;;;5048365;28;20033;-87
2021/05/15 10:48:23;;;;;;;2.10;1.13;;;14.00;99.90;;;;;;5033814;28;20029;-84
2021/05/15 10:51:09;;;;;;;5.47;1.63;;;13.10;99.90;;;;;;5031788;28;20078;-85
2021/05/15 10:53:35;;;;;;;3.85;1.10;;;13.30;99.90;;;;;;5050522;28;20053;-83
2021/05/15 10:56:09;;;;;;;5.75;1.50;;;14.20;99.90;;;;;;5045153;28;20407;-84
2021/05/15 10:58:40;;;;;;;4.78;1.50;;;13.20;99.90;;;;;;5048062;28;20075;-84
2021/05/15 11:01:24;;;;;;;3.03;1.33;;;13.20;99.90;;;;;;5037775;28;20491;-83
2021/05/15 11:03:50;;;;;;;1.70;1.13;;;13.20;99.90;;;;;;5030976;28;20033;-82
2021/05/15 11:06:24;;;;;;;3.78;1.17;;;13.20;99.90;;;;;;5030216;28;20559;-86
2021/05/15 11:09:00;;;;;;;4.45;1.33;;;13.20;99.90;;;;;;5046231;28;20083;-84
2021/05/15 11:11:42;;;;;;;4.55;1.70;;;13.10;99.90;;;;;;5036123;28;20029;-84
2021/05/15 11:14:25;;;;;;;4.20;2.00;;;13.00;99.90;;;;;;5052400;28;20370;-81
2021/05/15 11:17:19;;;;;;;5.75;1.73;;;13.00;99.90;;;;;;5051483;28;20024;-87
2021/05/15 11:20:05;;;;;;;4.15;1.25;;;12.90;99.90;;;;;;5051923;28;20044;-86
2021/05/15 11:22:35;;;;;;;6.68;1.30;;;13.20;99.90;;;;;;5017875;28;20041;-83
2021/05/15 11:25:12;;;;;;;5.63;1.38;;;13.50;99.40;;;;;;5047515;28;20029;-84
2021/05/15 11:27:47;;;;;;;2.55;1.20;;;13.60;99.70;;;;;;5040826;28;20116;-82
2021/05/15 11:30:31;;;;;;;3.58;1.02;;;13.70;99.40;;;;;;5028440;28;20130;-84
2021/05/15 11:33:06;;;;;;;2.17;1.10;;;13.60;98.90;;;;;;5030920;28;20087;-81
2021/05/15 11:35:40;;;;;;;3.20;1.10;;;14.10;98.00;;;;;;5030487;28;20490;-83
2021/05/15 11:38:09;;;;;;;4.03;1.10;;;14.40;97.60;;;;;;5042304;28;20039;-86
2021/05/15 11:40:38;;;;;;;3.30;1.25;;;14.70;97.20;;;;;;5035275;28;20072;-84
2021/05/15 11:43:04;;;;;;;2.60;0.70;;;15.00;96.00;;;;;;5046392;28;20182;-84
2021/05/15 11:45:32;;;;;;;2.40;0.88;;;15.00;94.30;;;;;;5031543;28;20036;-84
2021/05/15 11:48:08;;;;;;;5.47;1.00;;;17.40;95.20;;;;;;5055570;28;20055;-86
2021/05/15 11:50:34;;;;;;;5.07;0.98;;;14.70;94.70;;;;;;5047327;28;20269;-84
2021/05/15 11:53:02;;;;;;;4.88;0.90;;;14.60;95.10;;;;;;5035349;28;20520;-84
2021/05/15 11:55:28;;;;;;;2.30;0.88;;;14.40;95.40;;;;;;5035678;28;20080;-85
2021/05/15 11:58:01;;;;;;;5.40;1.05;;;16.00;96.00;;;;;;5030324;28;20041;-84
2021/05/15 12:00:29;;;;;;;2.33;1.38;;;14.20;95.90;;;;;;5029562;28;20030;-83
2021/05/15 12:02:55;;;;;;;3.97;1.02;;;;;;;;;;5046679;28;20455;-85
2021/05/15 12:05:21;;;;;;;2.13;1.00;;;14.10;95.80;;;;;;5044574;28;20037;-85
2021/05/15 12:07:47;;;;;;;3.03;1.23;;;14.20;96.20;;;;;;5030877;28;20032;-85
2021/05/15 12:10:18;;;;;;;5.35;1.65;;;14.20;96.30;;;;;;5046214;28;20426;-83
2021/05/15 12:13:01;;;;;;;3.13;1.05;;;14.20;96.30;;;;;;5037688;28;20147;-83
2021/05/15 12:15:32;;;;;;;3.90;1.38;;;14.00;96.70;;;;;;5034151;28;20033;-82
2021/05/15 12:17:58;;;;;;;;;;;14.10;97.20;;;;;;5039803;28;20028;-85
2021/05/15 12:20:41;;;;;;;3.80;1.20;;;14.90;96.70;;;;;;5033770;28;20034;-84
2021/05/15 12:23:22;;;;;;;3.83;1.00;;;14.10;96.60;;;;;;5040796;28;20111;-83
2021/05/15 12:26:05;;;;;;;1.55;0.90;;;14.10;95.80;;;;;;5048924;28;20060;-83
2021/05/15 12:28:43;;;;;;;2.55;1.00;;;14.00;96.90;;;;;;5045058;28;20029;-85
2021/05/15 12:31:27;;;;;;;2.85;0.98;;;13.90;96.60;;;;;;5038964;28;20083;-84
2021/05/15 12:33:53;;;;;;;6.85;1.10;;;14.20;96.10;;;;;;5029448;28;20083;-85
2021/05/15 12:36:19;;;;;;;2.85;1.05;;;15.30;96.50;;;;;;5034086;28;20036;-84
2021/05/15 12:38:48;;;;;;;3.15;1.10;;;14.50;95.70;;;;;;5038882;28;20250;-84
2021/05/15 12:41:34;;;;;;;3.22;1.30;;;16.20;96.30;;;;;;5054505;28;20084;-83
2021/05/15 12:44:10;;;;;;;4.18;1.27;;;14.60;95.40;;;;;;5046795;28;20039;-86
2021/05/15 12:46:38;;;;;;;3.75;1.00;;;14.60;95.50;;;;;;5042373;28;20024;-84
2021/05/15 12:49:09;;;;;;;4.07;1.20;;;14.30;95.60;;;;;;5036756;28;20645;-81
2021/05/15 12:51:45;;;;;;;4.45;1.75;;;15.20;96.30;;;;;;5034696;28;20028;-83
2021/05/15 12:54:15;;;;;;;2.63;1.33;;;14.50;95.70;;;;;;5044051;28;20021;-82
2021/05/15 12:56:42;;;;;;;3.10;1.30;;;;;;;;;;5054439;28;20035;-85
2021/05/15 12:59:08;;;;;;;3.65;1.27;;;14.50;95.60;;;;;;5045190;28;20377;-82
2021/05/15 13:01:34;;;;;;;5.68;1.65;;;15.80;95.90;;;;;;5030932;28;20075;-78
2021/05/15 13:04:00;;;;;;;2.65;1.15;;;;;;;;;;5029967;28;20044;-82
2021/05/15 13:06:27;;;;;;;3.30;0.90;;;14.40;95.40;;;;;;5037577;28;20396;-82